Time;durP1;ratioP1;P1;durP2;ratioP2;P2;SDS_P1;SDS_P2;PMS_P1;PMS_P2;Temp;Humidity;BMP_temperature;BMP_pressure;BME280_temperature;BME280_humidity;BME280_pressure;Samples;Min_cycle;Max_cycle;Signal;HPM_P1;HPM_P2
2023/07/06 00:01:46;;;;;;;9.45;8.68;;;23.90;99.90;;;;;;4882545;29;20033;-93
2023/07/06 00:04:14;;;;;;;9.25;8.55;;;23.80;99.90;;;;;;4867992;29;20024;-94
2023/07/06 00:06:40;;;;;;;8.60;8.10;;;23.90;99.90;;;;;;4867308;29;20037;-91
2023/07/06 00:09:07;;;;;;;9.75;9.00;;;23.90;99.90;;;;;;4863788;29;20593;-92
2023/07/06 00:11:37;;;;;;;9.20;8.50;;;23.90;99.90;;;;;;4879678;29;20041;-93
2023/07/06 00:14:04;;;;;;;9.77;8.80;;;23.90;99.90;;;;;;4879419;29;20044;-93
2023/07/06 00:16:31;;;;;;;9.75;8.73;;;23.90;99.90;;;;;;4879637;29;20037;-95
2023/07/06 00:18:58;;;;;;;9.13;8.32;;;23.90;99.90;;;;;;4882347;29;20397;-92
2023/07/06 00:21:32;;;;;;;9.88;8.90;;;23.80;99.90;;;;;;4882774;29;20028;-94
2023/07/06 00:24:00;;;;;;;9.38;8.52;;;23.80;99.90;;;;;;4882633;29;20060;-94
2023/07/06 00:26:26;;;;;;;9.80;8.82;;;23.90;99.90;;;;;;4866889;29;20020;-91
2023/07/06 00:28:58;;;;;;;10.02;9.15;;;23.80;99.90;;;;;;4863618;29;20487;-94
2023/07/06 00:31:40;;;;;;;9.13;8.40;;;23.80;99.90;;;;;;4879577;29;20029;-94
2023/07/06 00:34:08;;;;;;;9.93;8.30;;;23.80;99.90;;;;;;4880925;29;20049;-93
2023/07/06 00:36:37;;;;;;;9.00;8.10;;;23.80;99.90;;;;;;4882331;29;20382;-94
2023/07/06 00:39:04;;;;;;;9.43;8.63;;;23.90;99.90;;;;;;4897888;29;20143;-94
2023/07/06 00:41:32;;;;;;;8.10;7.47;;;23.90;99.90;;;;;;4882597;29;20081;-93
2023/07/06 00:43:59;;;;;;;8.82;7.93;;;23.80;99.90;;;;;;4867363;29;20439;-95
2023/07/06 00:46:39;;;;;;;7.97;7.30;;;23.80;99.90;;;;;;4863795;29;20045;-92
2023/07/06 00:49:15;;;;;;;9.38;6.82;;;23.80;99.90;;;;;;4865699;29;20025;-91
2023/07/06 00:51:44;;;;;;;9.38;6.97;;;23.80;99.90;;;;;;4864279;29;20039;-92
2023/07/06 00:54:16;;;;;;;7.43;6.10;;;23.70;99.90;;;;;;4867213;29;20037;-92
2023/07/06 00:56:52;;;;;;;8.77;6.05;;;23.60;99.90;;;;;;4866961;29;20036;-91
2023/07/06 00:59:26;;;;;;;7.43;6.45;;;23.60;99.90;;;;;;4867105;29;20036;-93
2023/07/06 01:01:53;;;;;;;10.65;6.25;;;23.50;99.90;;;;;;4851731;29;20084;-93
2023/07/06 01:04:21;;;;;;;6.47;5.82;;;23.50;99.90;;;;;;4866993;29;20029;-92
2023/07/06 01:06:51;;;;;;;8.10;6.30;;;23.50;99.90;;;;;;4851368;29;20028;-93
2023/07/06 01:09:18;;;;;;;6.22;5.63;;;23.50;99.90;;;;;;4866898;29;20045;-92
2023/07/06 01:11:44;;;;;;;6.93;6.05;;;23.50;99.90;;;;;;4851502;29;20506;-92
2023/07/06 01:14:13;;;;;;;8.13;5.72;;;23.50;99.90;;;;;;4863411;29;20098;-91
2023/07/06 01:17:03;;;;;;;6.88;6.13;;;23.50;99.90;;;;;;4866858;29;20474;-94
2023/07/06 01:19:38;;;;;;;6.82;5.38;;;23.50;99.90;;;;;;4866935;29;20450;-94
2023/07/06 01:22:38;;;;;;;5.32;4.93;;;23.50;99.90;;;;;;4866915;29;20025;-93
2023/07/06 01:25:38;;;;;;;8.35;5.18;;;23.50;99.90;;;;;;4867274;29;20029;-95
2023/07/06 01:28:41;;;;;;;6.85;5.75;;;23.50;99.90;;;;;;4793426;29;20035;-93
2023/07/06 01:31:30;;;;;;;8.70;6.18;;;23.50;99.90;;;;;;4809415;29;20441;-94
2023/07/06 01:34:17;;;;;;;8.25;5.30;;;23.50;99.90;;;;;;4793883;29;20058;-93
2023/07/06 01:37:00;;;;;;;6.43;5.18;;;23.50;99.90;;;;;;4792779;29;20446;-95
2023/07/06 01:39:27;;;;;;;6.10;5.50;;;23.50;99.90;;;;;;4793178;29;20046;-95
2023/07/06 01:42:08;;;;;;;7.93;5.70;;;23.50;99.90;;;;;;4792926;29;20033;-94
2023/07/06 01:44:37;;;;;;;6.45;5.80;;;23.50;99.90;;;;;;4807514;29;20083;-95
2023/07/06 01:47:04;;;;;;;7.95;5.97;;;23.50;99.90;;;;;;4792849;29;20039;-93
2023/07/06 01:49:31;;;;;;;7.07;5.55;;;23.40;99.90;;;;;;4793012;29;20043;-95
2023/07/06 01:52:19;;;;;;;9.45;6.60;;;23.40;99.90;;;;;;4792768;29;20078;-94
2023/07/06 01:54:54;;;;;;;7.30;5.13;;;23.30;99.90;;;;;;4807980;29;20050;-93
2023/07/06 01:57:31;;;;;;;8.68;5.15;;;23.30;99.90;;;;;;4789660;30;20039;-93
2023/07/06 02:00:05;;;;;;;8.38;5.82;;;23.30;99.90;;;;;;4794198;29;20031;-93
2023/07/06 02:02:51;;;;;;;7.70;5.47;;;23.30;99.90;;;;;;4789809;30;20062;-94
2023/07/06 02:05:21;;;;;;;7.38;5.25;;;23.20;99.90;;;;;;4832502;29;20120;-93
2023/07/06 02:07:52;;;;;;;12.60;5.75;;;23.20;99.90;;;;;;4847868;29;20034;-94
2023/07/06 02:10:22;;;;;;;9.63;5.47;;;23.10;99.90;;;;;;4847751;29;20033;-93
2023/07/06 02:12:49;;;;;;;8.82;5.68;;;23.10;99.90;;;;;;4862751;29;20028;-93
2023/07/06 02:15:18;;;;;;;8.55;6.38;;;23.10;99.90;;;;;;4866159;29;20543;-93
2023/07/06 02:17:50;;;;;;;8.90;5.78;;;23.10;99.90;;;;;;4850790;29;20029;-93
2023/07/06 02:20:19;;;;;;;6.18;5.55;;;23.00;99.90;;;;;;4866066;29;20041;-95
2023/07/06 02:22:45;;;;;;;6.28;5.78;;;23.00;99.90;;;;;;4850581;29;20053;-93
2023/07/06 02:25:12;;;;;;;7.05;5.68;;;23.00;99.90;;;;;;4881408;29;20029;-94
2023/07/06 02:27:39;;;;;;;7.05;5.90;;;23.00;99.90;;;;;;4850141;29;20037;-94
2023/07/06 02:30:09;;;;;;;6.53;5.93;;;23.00;99.90;;;;;;4865790;29;20040;-93
2023/07/06 02:32:36;;;;;;;7.70;6.80;;;22.90;99.90;;;;;;4850222;29;20070;-92
2023/07/06 02:35:02;;;;;;;9.55;6.32;;;22.80;99.90;;;;;;4866184;29;20383;-93
2023/07/06 02:37:31;;;;;;;7.97;6.55;;;22.70;99.90;;;;;;4849896;29;20056;-94
2023/07/06 02:39:58;;;;;;;8.95;6.55;;;22.70;99.90;;;;;;4865140;29;20119;-93
2023/07/06 02:42:26;;;;;;;6.13;5.50;;;22.70;99.90;;;;;;4865230;29;20029;-94
2023/07/06 02:44:53;;;;;;;7.45;5.88;;;22.70;99.90;;;;;;4867355;29;20101;-93
2023/07/06 02:47:21;;;;;;;8.25;6.53;;;22.70;99.90;;;;;;4861835;29;20556;-93
2023/07/06 02:49:48;;;;;;;7.68;5.55;;;22.70;99.90;;;;;;4865015;29;20044;-93
2023/07/06 02:52:16;;;;;;;6.55;5.85;;;22.70;99.90;;;;;;4865147;29;20054;-93
2023/07/06 02:54:43;;;;;;;9.27;6.47;;;22.70;99.90;;;;;;4865724;29;20105;-93
2023/07/06 02:57:12;;;;;;;13.25;7.10;;;22.70;99.90;;;;;;4864906;29;20037;-92
2023/07/06 02:59:39;;;;;;;10.48;6.53;;;22.70;99.90;;;;;;4864902;29;20073;-93
2023/07/06 03:02:06;;;;;;;6.88;6.22;;;22.70;99.90;;;;;;4864835;29;20056;-93
2023/07/06 03:04:32;;;;;;;10.82;5.43;;;22.70;99.90;;;;;;4865114;29;20037;-93
2023/07/06 03:06:59;;;;;;;9.10;6.03;;;22.70;99.90;;;;;;4861737;29;20034;-93
2023/07/06 03:09:26;;;;;;;7.70;5.38;;;22.70;99.90;;;;;;4862012;29;20034;-95
2023/07/06 03:11:53;;;;;;;5.25;4.72;;;22.70;99.90;;;;;;4862132;29;20032;-93
2023/07/06 03:14:25;;;;;;;11.80;5.35;;;22.70;99.90;;;;;;4861691;29;20042;-93
2023/07/06 03:16:53;;;;;;;7.90;5.10;;;22.60;99.90;;;;;;4864923;29;20554;-93
2023/07/06 03:19:21;;;;;;;6.00;4.97;;;22.60;99.90;;;;;;4864976;29;20116;-94
2023/07/06 03:21:48;;;;;;;10.20;5.90;;;22.70;99.90;;;;;;4864987;29;20053;-94
2023/07/06 03:24:15;;;;;;;8.52;5.38;;;22.70;99.90;;;;;;4865142;29;20032;-94
2023/07/06 03:26:42;;;;;;;7.38;5.95;;;22.70;99.90;;;;;;4864755;29;20537;-95
2023/07/06 03:29:12;;;;;;;6.97;5.00;;;22.70;99.90;;;;;;4864848;29;20023;-93
2023/07/06 03:31:39;;;;;;;9.40;5.68;;;22.70;99.90;;;;;;4880279;29;20123;-92
2023/07/06 03:34:14;;;;;;;8.98;5.88;;;22.60;99.90;;;;;;4880183;29;20467;-93
2023/07/06 03:36:41;;;;;;;14.85;6.00;;;22.60;99.90;;;;;;4879823;29;20088;-93
2023/07/06 03:39:12;;;;;;;6.50;5.13;;;22.60;99.90;;;;;;4864559;29;20546;-92
2023/07/06 03:41:39;;;;;;;6.75;5.20;;;22.60;99.90;;;;;;4879995;29;20487;-93
2023/07/06 03:44:06;;;;;;;11.60;5.80;;;22.50;99.90;;;;;;4880045;29;20487;-92
2023/07/06 03:46:34;;;;;;;10.73;5.93;;;22.50;99.90;;;;;;4867540;29;20131;-94
2023/07/06 03:49:04;;;;;;;7.75;6.07;;;22.50;99.90;;;;;;4882712;29;20108;-91
2023/07/06 03:51:32;;;;;;;6.80;5.82;;;22.50;99.90;;;;;;4867338;29;20029;-93
2023/07/06 03:53:58;;;;;;;8.73;6.28;;;22.40;99.90;;;;;;4867539;29;20036;-94
2023/07/06 03:56:27;;;;;;;9.02;5.45;;;22.50;99.90;;;;;;4882793;29;20029;-92
2023/07/06 03:58:58;;;;;;;14.20;6.10;;;22.60;99.90;;;;;;4898873;29;20566;-93
2023/07/06 04:01:31;;;;;;;14.23;5.95;;;22.60;99.90;;;;;;4898479;29;20060;-94
2023/07/06 04:03:58;;;;;;;7.25;5.15;;;22.60;99.90;;;;;;4882482;29;20040;-92
2023/07/06 04:06:26;;;;;;;9.45;6.07;;;22.60;99.90;;;;;;4898948;29;20024;-93
2023/07/06 04:08:58;;;;;;;9.95;6.50;;;22.70;99.90;;;;;;4898199;29;20117;-92
2023/07/06 04:11:25;;;;;;;10.00;6.30;;;22.80;99.90;;;;;;4898062;29;20099;-94
2023/07/06 04:13:57;;;;;;;10.48;6.25;;;22.80;99.90;;;;;;4867150;29;20056;-94
2023/07/06 04:16:24;;;;;;;10.50;6.72;;;22.80;99.90;;;;;;4866969;29;20486;-93
2023/07/06 04:18:51;;;;;;;11.70;6.78;;;22.80;99.90;;;;;;4867099;29;20123;-92
2023/07/06 04:21:22;;;;;;;9.60;6.68;;;22.90;99.90;;;;;;4867314;29;20028;-93
2023/07/06 04:23:49;;;;;;;10.95;6.82;;;22.90;99.90;;;;;;4882749;29;20068;-92
2023/07/06 04:26:18;;;;;;;6.13;5.55;;;22.90;99.90;;;;;;4867176;29;20051;-93
2023/07/06 04:28:44;;;;;;;8.57;6.53;;;23.00;99.90;;;;;;4886144;29;20119;-93
2023/07/06 04:31:14;;;;;;;7.25;6.13;;;23.00;99.90;;;;;;4870618;29;20025;-94
2023/07/06 04:33:41;;;;;;;7.35;6.65;;;23.20;99.90;;;;;;4871029;29;20048;-94
2023/07/06 04:36:11;;;;;;;9.98;6.72;;;23.30;99.90;;;;;;4870736;29;20028;-92
2023/07/06 04:38:47;;;;;;;11.23;7.00;;;23.40;99.90;;;;;;4870939;29;20036;-93
2023/07/06 04:41:13;;;;;;;9.88;8.15;;;23.60;99.90;;;;;;4886223;29;20025;-92
2023/07/06 04:43:40;;;;;;;9.70;8.77;;;23.90;99.90;;;;;;4867621;29;20027;-92
2023/07/06 04:46:08;;;;;;;9.95;8.95;;;24.20;99.90;;;;;;4901323;29;20049;-94
2023/07/06 04:48:35;;;;;;;10.68;9.70;;;24.60;99.90;;;;;;4885925;29;20043;-93
2023/07/06 04:51:01;;;;;;;12.55;11.52;;;25.20;99.90;;;;;;4901604;29;20124;-93
2023/07/06 04:53:28;;;;;;;13.90;12.73;;;26.00;99.90;;;;;;4870158;29;20036;-93
2023/07/06 04:56:00;;;;;;;15.60;14.30;;;26.80;99.90;;;;;;4870499;29;20028;-94
2023/07/06 04:58:28;;;;;;;15.00;13.70;;;27.90;99.90;;;;;;4885716;29;20119;-92
2023/07/06 05:00:55;;;;;;;14.48;13.38;;;29.00;99.90;;;;;;4885809;29;20440;-93
2023/07/06 05:03:22;;;;;;;14.50;13.23;;;30.40;99.90;;;;;;4885818;29;20033;-94
2023/07/06 05:05:49;;;;;;;15.95;14.63;;;30.80;99.90;;;;;;4885743;29;20052;-94
2023/07/06 05:08:21;;;;;;;17.42;16.08;;;31.00;99.90;;;;;;4885885;29;20041;-93
2023/07/06 05:10:52;;;;;;;18.27;16.98;;;31.70;99.90;;;;;;4885468;29;20037;-92
2023/07/06 05:13:22;;;;;;;18.67;17.27;;;31.80;99.90;;;;;;4885575;29;20044;-91
2023/07/06 05:15:50;;;;;;;19.00;17.60;;;31.70;99.90;;;;;;4885298;29;20040;-91
2023/07/06 05:18:19;;;;;;;19.08;17.83;;;31.70;99.90;;;;;;4900977;29;20028;-92
2023/07/06 05:20:50;;;;;;;19.90;18.50;;;31.90;99.90;;;;;;4900867;29;20119;-92
2023/07/06 05:23:18;;;;;;;19.42;18.02;;;32.20;99.90;;;;;;4885239;29;20033;-91
2023/07/06 05:25:52;;;;;;;19.58;18.30;;;32.50;99.90;;;;;;4885455;29;20045;-93
2023/07/06 05:28:20;;;;;;;19.42;18.05;;;32.30;99.90;;;;;;4884980;29;20031;-92
2023/07/06 05:30:48;;;;;;;19.55;18.23;;;32.00;99.90;;;;;;4869650;29;20596;-93
2023/07/06 05:33:15;;;;;;;19.80;18.40;;;31.80;99.90;;;;;;4884895;29;20048;-92
2023/07/06 05:35:42;;;;;;;20.40;18.75;;;32.10;99.90;;;;;;4900542;29;20173;-92
2023/07/06 05:38:10;;;;;;;19.42;18.15;;;31.70;99.90;;;;;;4899784;29;20403;-93
2023/07/06 05:40:40;;;;;;;18.88;17.65;;;31.30;99.90;;;;;;4900205;29;20032;-93
2023/07/06 05:43:09;;;;;;;20.02;18.25;;;31.10;99.90;;;;;;4900491;29;20028;-91
2023/07/06 05:45:35;;;;;;;19.55;18.13;;;31.30;99.90;;;;;;4869357;29;20130;-91
2023/07/06 05:48:02;;;;;;;19.90;18.20;;;31.70;99.90;;;;;;4869771;29;20036;-93
2023/07/06 05:50:29;;;;;;;18.95;17.75;;;31.60;99.90;;;;;;4869281;29;20391;-91
2023/07/06 05:52:56;;;;;;;19.13;17.77;;;31.90;99.90;;;;;;4884594;29;20037;-93
2023/07/06 05:55:23;;;;;;;19.45;18.08;;;31.60;99.90;;;;;;4869253;29;20035;-92
2023/07/06 05:57:50;;;;;;;19.95;18.55;;;31.60;99.90;;;;;;4900308;29;20024;-94
2023/07/06 06:00:17;;;;;;;19.90;18.48;;;31.70;99.90;;;;;;4869065;29;20035;-94
2023/07/06 06:02:44;;;;;;;19.88;18.02;;;31.50;99.90;;;;;;4905309;29;20032;-92
2023/07/06 06:05:14;;;;;;;19.95;18.52;;;31.20;99.90;;;;;;4900062;29;20028;-94
2023/07/06 06:07:45;;;;;;;20.02;18.52;;;31.20;99.90;;;;;;4873742;29;20491;-91
2023/07/06 06:10:12;;;;;;;21.00;19.33;;;30.90;99.90;;;;;;4881095;29;20549;-93
2023/07/06 06:12:38;;;;;;;20.52;19.13;;;31.50;99.90;;;;;;4881047;29;20029;-94
2023/07/06 06:15:07;;;;;;;20.52;19.02;;;31.50;99.90;;;;;;4881110;29;20033;-94
2023/07/06 06:17:36;;;;;;;20.30;18.88;;;31.50;99.90;;;;;;4880987;29;20029;-92
2023/07/06 06:20:06;;;;;;;19.92;18.52;;;31.60;99.90;;;;;;4898390;29;20039;-93
2023/07/06 06:22:33;;;;;;;21.02;19.40;;;32.00;99.90;;;;;;4877679;29;20025;-93
2023/07/06 06:25:00;;;;;;;19.85;18.60;;;32.30;99.90;;;;;;4881120;29;20172;-94
2023/07/06 06:27:26;;;;;;;20.50;19.02;;;32.90;99.90;;;;;;4880914;29;20036;-92
2023/07/06 06:29:53;;;;;;;20.23;19.02;;;32.30;99.90;;;;;;4880945;29;20116;-92
2023/07/06 06:32:19;;;;;;;21.60;19.27;;;31.90;99.90;;;;;;4880858;29;20089;-91
2023/07/06 06:34:49;;;;;;;19.65;18.42;;;32.00;99.90;;;;;;4881430;29;20040;-92
2023/07/06 06:37:16;;;;;;;20.35;18.85;;;31.40;99.90;;;;;;4880986;29;20037;-92
2023/07/06 06:39:43;;;;;;;20.83;18.98;;;31.40;99.90;;;;;;4880961;29;20033;-94
2023/07/06 06:42:13;;;;;;;20.55;19.05;;;31.90;99.90;;;;;;4883190;29;20040;-94
2023/07/06 06:44:43;;;;;;;22.38;20.02;;;32.20;99.90;;;;;;4866756;29;20471;-92
2023/07/06 06:47:09;;;;;;;21.40;19.80;;;32.30;99.90;;;;;;4884079;29;20124;-93
2023/07/06 06:49:36;;;;;;;22.08;20.48;;;32.40;99.90;;;;;;4883115;29;20028;-94
2023/07/06 06:52:04;;;;;;;21.38;19.98;;;32.30;99.90;;;;;;4868144;29;20033;-92
2023/07/06 06:54:30;;;;;;;21.60;20.10;;;32.50;99.90;;;;;;4868339;29;20032;-92
2023/07/06 06:56:57;;;;;;;20.90;19.52;;;32.50;99.90;;;;;;4883939;29;20409;-94
2023/07/06 06:59:24;;;;;;;21.58;19.75;;;32.50;99.90;;;;;;4880141;29;20039;-94
2023/07/06 07:01:50;;;;;;;21.08;19.63;;;32.60;99.90;;;;;;4849918;29;20513;-92
2023/07/06 07:04:17;;;;;;;21.45;19.80;;;32.60;99.90;;;;;;4869557;29;20017;-94
2023/07/06 07:06:47;;;;;;;21.58;20.17;;;32.70;99.90;;;;;;4868129;29;20029;-93
2023/07/06 07:09:17;;;;;;;21.05;19.67;;;32.10;99.90;;;;;;4866627;29;20037;-93
2023/07/06 07:11:44;;;;;;;22.10;20.52;;;32.00;99.90;;;;;;4898809;29;20039;-93
2023/07/06 07:14:10;;;;;;;22.13;20.55;;;32.50;99.90;;;;;;4868071;29;20036;-93
2023/07/06 07:16:37;;;;;;;22.05;20.55;;;32.50;99.90;;;;;;4899013;29;20028;-93
2023/07/06 07:19:04;;;;;;;22.52;20.92;;;32.50;99.90;;;;;;4867865;29;20037;-93
2023/07/06 07:21:30;;;;;;;22.25;20.77;;;32.40;99.90;;;;;;4868005;29;20044;-94
2023/07/06 07:23:57;;;;;;;22.45;20.95;;;32.40;99.90;;;;;;4867790;29;20052;-94
2023/07/06 07:26:27;;;;;;;22.50;20.70;;;32.10;99.90;;;;;;4884311;29;20032;-94
2023/07/06 07:28:53;;;;;;;22.30;20.67;;;32.10;99.90;;;;;;4867420;29;20054;-95
2023/07/06 07:31:22;;;;;;;23.00;21.23;;;32.10;99.90;;;;;;4867719;29;20067;-94
2023/07/06 07:33:49;;;;;;;22.75;21.15;;;32.80;99.90;;;;;;4868608;29;20100;-93
2023/07/06 07:36:17;;;;;;;21.60;20.17;;;32.50;99.90;;;;;;4867436;29;20024;-93
2023/07/06 07:38:45;;;;;;;23.48;21.50;;;32.90;99.90;;;;;;4867246;29;20398;-92
2023/07/06 07:41:13;;;;;;;22.67;20.92;;;33.00;99.90;;;;;;4867297;29;20566;-94
2023/07/06 07:43:46;;;;;;;22.75;21.35;;;33.00;99.90;;;;;;4867744;29;20092;-95
2023/07/06 07:46:15;;;;;;;22.50;21.10;;;33.40;99.90;;;;;;4867042;29;20055;-94
2023/07/06 07:48:46;;;;;;;23.08;21.38;;;33.10;99.90;;;;;;4870518;29;20076;-93
2023/07/06 07:51:29;;;;;;;22.33;21.00;;;33.10;99.90;;;;;;4867266;29;20032;-94
2023/07/06 07:53:56;;;;;;;22.42;21.10;;;32.90;99.90;;;;;;4851424;29;20104;-91
2023/07/06 09:03:07;;;;;;;23.35;21.58;;;33.20;99.90;;;;;;5461294;23;20052;-91
2023/07/06 09:05:41;;;;;;;23.25;21.63;;;33.30;99.90;;;;;;4900947;29;20107;-91
2023/07/06 09:08:13;;;;;;;22.65;21.05;;;33.00;99.90;;;;;;4900835;29;20485;-93
2023/07/06 09:10:41;;;;;;;23.58;21.85;;;32.90;99.90;;;;;;4900902;29;20060;-90
2023/07/06 09:13:26;;;;;;;22.75;21.10;;;32.90;99.90;;;;;;4887427;29;20028;-92
2023/07/06 09:16:00;;;;;;;22.92;21.33;;;32.90;99.90;;;;;;4904329;29;20067;-91
2023/07/06 09:18:29;;;;;;;22.45;20.90;;;33.00;99.90;;;;;;4904160;29;20038;-93
2023/07/06 09:21:01;;;;;;;23.38;21.67;;;33.00;99.90;;;;;;4889646;29;20032;-90
2023/07/06 09:23:27;;;;;;;22.08;20.48;;;32.50;99.90;;;;;;4915168;29;20032;-91
2023/07/06 09:25:55;;;;;;;22.70;21.00;;;32.70;99.90;;;;;;4907078;29;20028;-90
2023/07/06 09:28:25;;;;;;;22.33;20.83;;;32.40;99.90;;;;;;4922916;29;20032;-91
2023/07/06 09:31:07;;;;;;;23.33;21.40;;;32.30;99.90;;;;;;4922877;29;20119;-91
2023/07/06 09:33:34;;;;;;;21.92;20.52;;;32.70;99.90;;;;;;4922456;29;20052;-91
2023/07/06 09:36:04;;;;;;;23.67;21.35;;;33.20;99.90;;;;;;4907196;29;20076;-91
2023/07/06 09:38:41;;;;;;;22.52;20.92;;;32.80;99.90;;;;;;4922369;29;20035;-91
2023/07/06 09:41:22;;;;;;;23.02;21.50;;;32.90;99.90;;;;;;4922764;29;20039;-91
2023/07/06 09:43:57;;;;;;;22.55;20.98;;;33.00;99.90;;;;;;4923015;29;20064;-91
2023/07/06 09:46:31;;;;;;;22.70;21.00;;;32.60;99.90;;;;;;4922540;29;20027;-90
2023/07/06 09:48:59;;;;;;;22.48;20.80;;;32.20;99.90;;;;;;4922364;29;20396;-91
2023/07/06 09:51:54;;;;;;;21.65;20.13;;;31.80;99.90;;;;;;4906689;29;20389;-91
2023/07/06 09:54:27;;;;;;;21.00;19.48;;;31.70;99.90;;;;;;4906770;29;20192;-91
2023/07/06 09:56:53;;;;;;;22.43;20.60;;;31.40;99.90;;;;;;4922402;29;20031;-90
2023/07/06 09:59:20;;;;;;;21.80;20.13;;;31.70;99.90;;;;;;4906680;29;20114;-90
2023/07/06 10:02:10;;;;;;;22.85;21.35;;;31.80;99.90;;;;;;4922065;29;20032;-90
2023/07/06 11:03:54;;;;;;;21.73;20.10;;;31.30;99.90;;;;;;5738941;23;20054;-91
2023/07/06 11:06:42;;;;;;;22.05;19.92;;;31.60;99.90;;;;;;4905464;29;20036;-92
2023/07/06 11:09:08;;;;;;;20.35;19.00;;;31.90;99.90;;;;;;4905879;29;20122;-92
2023/07/06 11:11:40;;;;;;;20.92;19.40;;;31.40;99.90;;;;;;4905535;29;20032;-92
2023/07/06 11:14:38;;;;;;;19.73;18.27;;;31.30;99.90;;;;;;4901873;29;20039;-92
2023/07/06 11:17:30;;;;;;;20.83;19.42;;;31.50;99.90;;;;;;4886192;29;20099;-92
2023/07/06 11:20:08;;;;;;;20.85;19.35;;;31.70;99.90;;;;;;4917949;29;20130;-93
2023/07/06 11:22:36;;;;;;;20.42;19.02;;;31.40;99.90;;;;;;4901701;29;20503;-93
2023/07/06 11:25:03;;;;;;;20.10;18.88;;;31.20;99.90;;;;;;4917461;29;20032;-90
2023/07/06 11:27:34;;;;;;;19.67;18.38;;;31.20;99.90;;;;;;4901879;29;20028;-92
2023/07/06 11:30:12;;;;;;;20.88;19.27;;;31.00;99.90;;;;;;4901848;29;20630;-91
2023/07/06 11:33:17;;;;;;;20.08;18.67;;;30.90;99.90;;;;;;4916969;29;20066;-94
2023/07/06 11:36:08;;;;;;;20.30;18.83;;;31.10;99.90;;;;;;4874745;29;20131;-92
2023/07/06 11:38:57;;;;;;;21.13;19.63;;;31.00;99.90;;;;;;4917081;29;20095;-91
2023/07/06 11:41:42;;;;;;;22.13;20.50;;;30.80;99.90;;;;;;4915230;29;20036;-93
2023/07/06 11:44:24;;;;;;;21.48;20.17;;;30.80;99.90;;;;;;4912390;29;20032;-93
2023/07/06 11:47:27;;;;;;;21.98;20.48;;;30.90;99.90;;;;;;4916828;29;20083;-93
2023/07/06 11:49:57;;;;;;;22.13;20.35;;;30.90;99.90;;;;;;4917287;29;20028;-94
2023/07/06 11:52:36;;;;;;;21.90;20.50;;;31.00;99.90;;;;;;4901566;29;20470;-93
2023/07/06 11:55:14;;;;;;;22.65;21.25;;;31.20;99.90;;;;;;4911474;29;20079;-93
2023/07/06 11:58:28;;;;;;;22.67;20.98;;;31.00;99.90;;;;;;4914391;29;20036;-91
2023/07/06 12:01:01;;;;;;;22.38;20.67;;;31.00;99.90;;;;;;4916420;29;20035;-92
2023/07/06 12:03:29;;;;;;;22.00;20.38;;;31.00;99.90;;;;;;4917164;29;20040;-91
2023/07/06 12:06:00;;;;;;;22.40;20.92;;;31.00;99.90;;;;;;4897130;29;20104;-90
2023/07/06 12:08:29;;;;;;;21.48;19.95;;;31.20;99.90;;;;;;4886144;29;20080;-91
2023/07/06 12:11:24;;;;;;;21.60;20.05;;;31.30;99.90;;;;;;4914968;29;20032;-91
2023/07/06 12:13:53;;;;;;;22.70;20.98;;;31.40;99.90;;;;;;4916527;29;20131;-92
2023/07/06 12:16:22;;;;;;;22.23;20.23;;;31.10;99.90;;;;;;4901167;29;20030;-91
2023/07/06 12:19:09;;;;;;;21.45;20.05;;;31.00;99.90;;;;;;4916979;29;20036;-92
2023/07/06 12:22:12;;;;;;;22.00;20.33;;;31.20;99.90;;;;;;4916541;29;20047;-91
2023/07/06 12:24:39;;;;;;;21.88;20.35;;;31.40;99.90;;;;;;4844923;29;20499;-90
2023/07/06 12:27:15;;;;;;;22.35;20.83;;;31.70;99.90;;;;;;4829873;29;20526;-92
2023/07/06 12:29:45;;;;;;;22.35;20.83;;;31.80;99.90;;;;;;4829104;29;20141;-92
2023/07/06 12:32:22;;;;;;;22.48;20.67;;;31.70;99.90;;;;;;4829008;29;20040;-94
2023/07/06 12:35:04;;;;;;;22.60;21.10;;;31.40;99.90;;;;;;4826350;29;20057;-94
2023/07/06 12:37:31;;;;;;;22.05;20.65;;;31.30;99.90;;;;;;4832086;29;20433;-94
2023/07/06 12:39:57;;;;;;;23.00;21.20;;;31.30;99.90;;;;;;4842230;29;20117;-93
2023/07/06 12:42:24;;;;;;;22.23;20.92;;;31.60;99.90;;;;;;4840269;29;20042;-92
2023/07/06 12:44:57;;;;;;;22.23;20.92;;;31.40;99.90;;;;;;4844612;29;20046;-94
2023/07/06 12:47:38;;;;;;;22.42;21.02;;;31.40;99.90;;;;;;4859932;29;20046;-91
2023/07/06 12:50:10;;;;;;;22.30;20.90;;;31.50;99.90;;;;;;4848146;29;20538;-91
2023/07/06 12:52:37;;;;;;;22.33;20.85;;;31.50;99.90;;;;;;4847812;29;20040;-92
2023/07/06 12:55:05;;;;;;;23.33;21.10;;;31.50;99.90;;;;;;4848019;29;20034;-93
2023/07/06 12:57:36;;;;;;;21.70;20.40;;;31.60;99.90;;;;;;4848908;29;20176;-92
2023/07/06 13:00:17;;;;;;;22.05;20.65;;;31.60;99.90;;;;;;4856792;29;20132;-92
2023/07/06 13:02:45;;;;;;;23.02;21.17;;;31.40;99.90;;;;;;4917877;29;20047;-93
2023/07/06 13:05:17;;;;;;;23.55;21.60;;;31.50;99.90;;;;;;4920206;29;20055;-93
2023/07/06 13:07:50;;;;;;;22.02;20.55;;;31.50;99.90;;;;;;4918596;29;20036;-93
2023/07/06 13:10:31;;;;;;;22.83;21.17;;;31.40;99.90;;;;;;4919008;29;20040;-92
2023/07/06 13:13:00;;;;;;;21.70;20.20;;;31.50;99.90;;;;;;4918349;29;20099;-91
2023/07/06 13:15:36;;;;;;;21.50;20.00;;;31.10;99.90;;;;;;4903167;29;20035;-92
2023/07/06 13:18:17;;;;;;;22.33;20.77;;;31.20;99.90;;;;;;4903669;29;20032;-93
2023/07/06 13:20:47;;;;;;;22.25;20.67;;;31.30;99.90;;;;;;4904125;29;20044;-91
2023/07/06 13:23:14;;;;;;;22.02;20.50;;;31.20;99.90;;;;;;4919138;29;20071;-92
2023/07/06 13:25:43;;;;;;;21.40;19.98;;;31.30;99.90;;;;;;4903770;29;20050;-91
2023/07/06 13:28:13;;;;;;;21.90;20.00;;;31.30;99.90;;;;;;4919021;29;20056;-93
2023/07/06 13:30:43;;;;;;;21.80;20.17;;;31.00;99.90;;;;;;4901834;29;20104;-91
2023/07/06 13:33:12;;;;;;;21.05;19.85;;;31.00;99.90;;;;;;4883800;29;20050;-91
2023/07/06 13:35:44;;;;;;;21.42;19.92;;;31.00;99.90;;;;;;4884341;29;20024;-91
2023/07/06 13:38:14;;;;;;;21.35;19.95;;;30.80;99.90;;;;;;4885126;29;20033;-93
2023/07/06 13:40:42;;;;;;;21.50;20.10;;;30.80;99.90;;;;;;4916155;29;20028;-92
2023/07/06 14:49:41;;;;;;;22.05;19.88;;;31.10;99.90;;;;;;5200788;23;20057;-93
2023/07/06 14:52:08;;;;;;;21.90;20.25;;;30.90;99.90;;;;;;4943250;29;20525;-93
2023/07/06 14:57:02;;;;;;;22.58;20.65;;;30.70;99.90;;;;;;4898421;29;20052;-92
2023/07/06 14:59:31;;;;;;;21.45;19.88;;;30.80;99.90;;;;;;4888229;29;20036;-94
2023/07/06 15:01:58;;;;;;;21.67;20.35;;;30.80;99.90;;;;;;4914053;23;20500;-92
2023/07/06 15:04:24;;;;;;;21.50;19.90;;;30.70;99.90;;;;;;4907796;29;20043;-91
2023/07/06 15:06:59;;;;;;;21.75;20.15;;;30.70;99.90;;;;;;4904006;29;20060;-92
2023/07/06 15:23:21;;;;;;;22.27;20.77;;;30.50;99.90;;;;;;5488643;23;20040;-95
2023/07/06 15:26:08;;;;;;;21.80;20.30;;;30.50;99.90;;;;;;5233881;23;20120;-94
2023/07/06 15:44:30;;;;;;;22.15;20.58;;;30.40;99.90;;;;;;4942387;23;20056;-92
2023/07/06 15:47:07;;;;;;;21.75;20.40;;;30.20;99.90;;;;;;4887716;29;20063;-93
2023/07/06 15:49:37;;;;;;;22.58;20.83;;;30.20;99.90;;;;;;4900294;29;20032;-93
2023/07/06 15:52:04;;;;;;;21.80;20.10;;;30.10;99.90;;;;;;4868213;29;20036;-94
2023/07/06 15:54:37;;;;;;;22.08;20.60;;;30.30;99.90;;;;;;4868374;29;20057;-92
2023/07/06 18:29:03;;;;;;;19.15;17.30;;;27.50;99.90;;;;;;5260445;23;20406;-91
2023/07/06 18:31:42;;;;;;;18.55;17.25;;;27.40;99.90;;;;;;4888573;29;20036;-92
2023/07/06 18:36:44;;;;;;;19.40;17.50;;;27.40;99.90;;;;;;5695121;23;20052;-92
2023/07/06 18:39:10;;;;;;;19.30;17.80;;;27.30;99.90;;;;;;4918289;29;20032;-91
2023/07/06 18:41:37;;;;;;;17.85;16.75;;;27.20;99.90;;;;;;4902815;29;20485;-90
2023/07/06 18:44:04;;;;;;;19.20;17.90;;;27.20;99.90;;;;;;4918194;29;20059;-91
2023/07/06 18:46:30;;;;;;;19.30;17.83;;;27.10;99.90;;;;;;4899529;29;20029;-91
2023/07/06 18:48:57;;;;;;;18.83;17.63;;;27.10;99.90;;;;;;4915076;29;20516;-91
2023/07/06 18:51:23;;;;;;;18.33;17.02;;;27.20;99.90;;;;;;4899444;29;20032;-91
2023/07/06 18:53:50;;;;;;;18.67;17.17;;;27.20;99.90;;;;;;4914883;29;20496;-92
2023/07/06 18:56:16;;;;;;;19.20;17.55;;;27.20;99.90;;;;;;4903166;29;20047;-92
2023/07/06 18:58:43;;;;;;;18.25;16.95;;;27.10;99.90;;;;;;4908115;29;20036;-91
2023/07/06 19:01:10;;;;;;;18.70;17.10;;;27.00;99.90;;;;;;4904087;29;20024;-90
2023/07/06 19:03:37;;;;;;;18.20;16.77;;;27.00;99.90;;;;;;4902285;29;20032;-93
2023/07/06 19:06:04;;;;;;;18.25;16.95;;;26.90;99.90;;;;;;4901840;29;20556;-92
2023/07/06 19:08:31;;;;;;;19.10;16.85;;;26.80;99.90;;;;;;4902025;29;20028;-91
2023/07/06 19:11:03;;;;;;;18.05;16.60;;;26.80;99.90;;;;;;4901718;29;20060;-93
2023/07/06 19:13:30;;;;;;;17.42;16.13;;;26.80;99.90;;;;;;4901857;29;20092;-91